createdAt,value
2018-07-14T00:04:18.424Z,4.47
2018-07-14T00:09:11.703Z,6.17
2018-07-14T00:14:05.040Z,6.50
2018-07-14T00:18:58.283Z,5.35
2018-07-14T00:23:51.523Z,5.67
2018-07-14T00:28:45.032Z,5.03
2018-07-14T00:33:38.303Z,7.10
2018-07-14T00:38:31.586Z,7.47
2018-07-14T00:43:24.812Z,6.87
2018-07-14T00:48:18.122Z,4.93
2018-07-14T00:53:11.469Z,5.42
2018-07-14T00:58:04.816Z,5.93
2018-07-14T01:02:58.094Z,7.10
2018-07-14T01:07:51.596Z,5.97
2018-07-14T01:12:45.545Z,6.73
2018-07-14T01:17:38.666Z,5.50
2018-07-14T01:22:31.956Z,7.07
2018-07-14T01:27:25.195Z,7.47
2018-07-14T01:32:18.476Z,8.18
2018-07-14T01:37:11.727Z,9.43
2018-07-14T01:42:04.955Z,6.75
2018-07-14T01:46:58.196Z,9.63
2018-07-14T01:51:51.872Z,7.25
2018-07-14T01:56:45.123Z,9.67
2018-07-14T02:01:38.337Z,5.50
2018-07-14T02:06:31.584Z,7.13
2018-07-14T02:11:24.909Z,6.50
2018-07-14T02:16:18.175Z,7.17
2018-07-14T02:21:11.439Z,8.83
2018-07-14T02:26:04.695Z,8.70
2018-07-14T02:30:57.945Z,7.75
2018-07-14T02:35:51.178Z,6.73
2018-07-14T02:40:44.435Z,8.83
2018-07-14T02:45:37.670Z,8.90
2018-07-14T02:50:30.811Z,8.78
2018-07-14T02:55:24.048Z,7.47
2018-07-14T03:00:17.335Z,8.03
2018-07-14T03:05:10.598Z,7.10
2018-07-14T03:10:03.849Z,8.53
2018-07-14T03:14:57.096Z,9.47
2018-07-14T03:19:50.662Z,8.60
2018-07-14T03:24:43.959Z,7.47
2018-07-14T03:29:37.214Z,10.33
2018-07-14T03:34:30.447Z,11.17
2018-07-14T03:39:23.668Z,8.13
2018-07-14T03:44:16.999Z,10.15
2018-07-14T03:49:10.235Z,8.60
2018-07-14T03:54:03.756Z,9.43
2018-07-14T03:58:56.988Z,9.30
2018-07-14T04:03:50.314Z,12.33
2018-07-14T04:08:43.566Z,10.27
2018-07-14T04:13:36.811Z,8.45
2018-07-14T04:18:30.039Z,8.50
2018-07-14T04:23:23.358Z,9.63
2018-07-14T04:28:16.609Z,9.33
2018-07-14T04:33:09.822Z,11.65
2018-07-14T04:38:02.923Z,11.23
2018-07-14T04:42:56.167Z,9.70
2018-07-14T04:47:49.284Z,9.00
2018-07-14T04:52:42.538Z,8.27
2018-07-14T04:57:35.808Z,10.57
2018-07-14T05:02:29.085Z,10.38
2018-07-14T05:07:22.626Z,9.83
2018-07-14T05:12:15.866Z,9.77
2018-07-14T05:17:09.279Z,11.63
2018-07-14T05:22:03.486Z,8.30
2018-07-14T05:26:56.987Z,11.50
2018-07-14T05:31:50.257Z,8.87
2018-07-14T05:36:43.548Z,9.90
2018-07-14T05:41:37.598Z,11.07
2018-07-14T05:46:32.051Z,8.73
2018-07-14T05:51:25.295Z,8.93
2018-07-14T05:56:18.434Z,8.00
2018-07-14T06:01:11.964Z,9.45
2018-07-14T06:06:05.635Z,9.97
2018-07-14T06:10:58.863Z,8.53
2018-07-14T06:15:52.103Z,7.30
2018-07-14T06:20:45.396Z,10.03
2018-07-14T06:25:38.734Z,8.87
2018-07-14T06:30:32.710Z,7.17
2018-07-14T06:35:25.929Z,8.30
2018-07-14T06:40:19.171Z,8.03
2018-07-14T06:45:12.303Z,9.33
2018-07-14T06:50:05.831Z,9.43
2018-07-14T06:54:59.027Z,9.60
2018-07-14T06:59:52.339Z,8.10
2018-07-14T07:04:45.624Z,7.50
2018-07-14T07:09:38.856Z,9.08
2018-07-14T07:14:32.566Z,9.97
2018-07-14T07:19:25.788Z,9.10
2018-07-14T07:24:19.017Z,8.70
2018-07-14T07:29:12.262Z,9.03
2018-07-14T07:34:05.953Z,10.23
2018-07-14T07:38:59.259Z,9.47
2018-07-14T07:43:52.667Z,8.70
2018-07-14T07:48:46.161Z,8.27
2018-07-14T07:53:39.360Z,9.30
2018-07-14T07:58:32.579Z,8.83
2018-07-14T08:03:25.786Z,9.37
2018-07-14T08:08:19.005Z,10.47
2018-07-14T08:13:12.242Z,13.17
2018-07-14T08:18:05.526Z,10.43
2018-07-14T08:22:58.834Z,11.83
2018-07-14T08:27:52.008Z,11.00
2018-07-14T08:32:45.249Z,12.00
2018-07-14T08:37:38.467Z,9.93
2018-07-14T08:42:31.745Z,11.80
2018-07-14T08:47:24.985Z,9.23
2018-07-14T08:52:18.236Z,11.37
2018-07-14T08:57:11.468Z,9.55
2018-07-14T09:02:04.777Z,7.67
2018-07-14T09:06:57.995Z,13.95
2018-07-14T09:11:51.485Z,8.90
2018-07-14T09:16:44.754Z,10.67
2018-07-14T09:21:37.973Z,11.03
2018-07-14T09:26:31.249Z,8.03
2018-07-14T09:31:24.558Z,8.13
2018-07-14T09:36:17.808Z,13.73
2018-07-14T09:41:11.057Z,10.72
2018-07-14T09:46:04.167Z,12.20
2018-07-14T09:50:57.458Z,9.90
2018-07-14T09:55:50.720Z,11.53
2018-07-14T10:00:49.591Z,9.50
2018-07-14T10:05:43.344Z,10.97
2018-07-14T10:10:36.694Z,8.87
2018-07-14T10:15:29.915Z,8.85
2018-07-14T10:20:23.179Z,9.23
2018-07-14T10:25:16.565Z,12.05
2018-07-14T10:30:09.679Z,11.87
2018-07-14T10:35:02.968Z,11.80
2018-07-14T10:39:56.231Z,12.50
2018-07-14T10:44:49.470Z,13.05
2018-07-14T10:49:42.670Z,8.23
2018-07-14T10:54:35.929Z,11.87
2018-07-14T10:59:29.426Z,14.13
2018-07-14T11:04:22.736Z,9.30
2018-07-14T11:09:15.932Z,11.17
2018-07-14T11:14:09.207Z,10.10
2018-07-14T11:19:02.404Z,10.40
2018-07-14T11:23:55.637Z,12.80
2018-07-14T11:28:49.155Z,13.43
2018-07-14T11:33:42.282Z,11.77
2018-07-14T11:38:35.803Z,13.10
2018-07-14T11:43:28.942Z,12.40
2018-07-14T11:48:22.277Z,10.75
2018-07-14T11:53:15.677Z,9.87
2018-07-14T11:58:08.929Z,13.03
2018-07-14T12:03:02.207Z,15.30
2018-07-14T12:07:55.477Z,13.98
2018-07-14T12:12:48.765Z,13.33
2018-07-14T12:17:42.007Z,11.03
2018-07-14T12:22:35.202Z,12.00
2018-07-14T12:27:28.453Z,11.78
2018-07-14T12:32:21.630Z,13.67
2018-07-14T12:37:14.762Z,10.03
2018-07-14T12:42:08.057Z,13.97
2018-07-14T12:47:01.367Z,8.53
2018-07-14T12:51:54.633Z,8.60
2018-07-14T12:56:47.754Z,10.75
2018-07-14T13:01:40.995Z,11.70
2018-07-14T13:06:34.339Z,9.80
2018-07-14T13:11:27.549Z,10.50
2018-07-14T13:16:20.804Z,14.07
2018-07-14T13:21:14.165Z,8.23
2018-07-14T13:26:07.439Z,11.97
2018-07-14T13:31:00.705Z,8.93
2018-07-14T13:35:54.072Z,10.95
2018-07-14T13:40:47.325Z,13.03
2018-07-14T13:45:40.618Z,10.08
2018-07-14T13:50:34.863Z,8.93
2018-07-14T13:55:28.139Z,9.73
2018-07-14T14:00:21.300Z,10.40
2018-07-14T14:05:14.404Z,10.00
2018-07-14T14:10:07.710Z,10.20
2018-07-14T14:15:00.935Z,8.83
2018-07-14T14:19:54.264Z,9.83
2018-07-14T14:24:47.521Z,7.30
2018-07-14T14:29:40.737Z,5.40
2018-07-14T14:34:34.008Z,4.50
2018-07-14T14:39:27.724Z,7.12
2018-07-14T14:44:21.019Z,7.78
2018-07-14T14:49:14.253Z,5.03
2018-07-14T14:54:07.446Z,4.33
2018-07-14T14:59:00.660Z,5.57
2018-07-14T15:03:53.894Z,4.35
2018-07-14T15:08:47.134Z,5.10
2018-07-14T15:13:40.408Z,4.60
2018-07-14T15:18:33.692Z,8.40
2018-07-14T15:23:26.969Z,4.62
2018-07-14T15:28:20.110Z,4.40
2018-07-14T15:33:13.444Z,6.37
2018-07-14T15:38:06.606Z,8.70
2018-07-14T15:42:59.898Z,5.95
2018-07-14T15:47:53.113Z,6.63
2018-07-14T15:52:46.389Z,3.83
2018-07-14T15:57:40.345Z,3.93
2018-07-14T16:02:33.556Z,2.43
2018-07-14T16:07:26.799Z,6.30
2018-07-14T16:12:20.053Z,4.90
2018-07-14T16:17:13.261Z,2.60
2018-07-14T16:22:06.909Z,3.20
2018-07-14T16:27:00.151Z,3.47
2018-07-14T16:31:53.382Z,3.43
2018-07-14T16:36:46.608Z,4.50
2018-07-14T16:41:40.201Z,2.60
2018-07-14T16:46:33.533Z,5.30
2018-07-14T16:51:26.738Z,4.17
2018-07-14T16:56:19.955Z,3.33
2018-07-14T17:01:13.271Z,5.33
2018-07-14T17:06:06.533Z,4.57
2018-07-14T17:11:00.714Z,3.93
2018-07-14T17:15:53.955Z,3.92
2018-07-14T17:20:47.325Z,3.77
2018-07-14T17:25:40.702Z,3.80
2018-07-14T17:30:33.899Z,3.00
2018-07-14T17:35:27.131Z,3.87
2018-07-14T17:40:20.671Z,3.20
2018-07-14T17:45:13.973Z,3.60
2018-07-14T17:50:07.300Z,3.63
2018-07-14T17:55:00.603Z,3.43
2018-07-14T17:59:53.884Z,7.15
2018-07-14T18:04:47.093Z,4.70
2018-07-14T18:09:40.347Z,4.12
2018-07-14T18:14:33.592Z,5.57
2018-07-14T18:19:26.822Z,5.00
2018-07-14T18:24:20.075Z,5.47
2018-07-14T18:29:13.339Z,8.13
2018-07-14T18:34:06.611Z,4.90
2018-07-14T18:38:59.950Z,6.35
2018-07-14T18:43:53.176Z,5.20
2018-07-14T18:48:46.331Z,3.92
2018-07-14T18:53:40.196Z,5.13
2018-07-14T18:58:33.483Z,4.30
2018-07-14T19:03:27.043Z,5.35
2018-07-14T19:08:20.522Z,5.87
2018-07-14T19:13:13.731Z,6.53
2018-07-14T19:18:06.929Z,6.47
2018-07-14T19:23:00.180Z,7.60
2018-07-14T19:27:53.423Z,9.53
2018-07-14T19:32:46.631Z,5.23
2018-07-14T19:37:39.873Z,7.58
2018-07-14T19:42:33.072Z,7.97
2018-07-14T19:47:26.276Z,6.00
2018-07-14T19:52:19.560Z,6.67
2018-07-14T19:57:12.698Z,6.83
2018-07-14T20:02:06.216Z,5.03
2018-07-14T20:06:59.448Z,6.90
2018-07-14T20:11:52.669Z,5.30
2018-07-14T20:16:45.923Z,6.60
2018-07-14T20:21:39.168Z,5.83
2018-07-14T20:26:32.401Z,7.20
2018-07-14T20:31:25.628Z,5.70
2018-07-14T20:36:18.849Z,5.53
2018-07-14T20:41:12.091Z,7.23
2018-07-14T20:46:05.391Z,5.93
2018-07-14T20:50:58.642Z,6.12
2018-07-14T20:55:51.894Z,10.57
2018-07-14T21:00:45.136Z,5.83
2018-07-14T21:05:38.415Z,4.93
2018-07-14T21:10:31.660Z,5.22
2018-07-14T21:15:24.897Z,6.20
2018-07-14T21:20:18.172Z,6.22
2018-07-14T21:25:11.455Z,7.77
2018-07-14T21:30:04.828Z,4.45
2018-07-14T21:34:58.040Z,6.97
2018-07-14T21:39:51.257Z,6.37
2018-07-14T21:44:44.677Z,4.33
2018-07-14T21:49:37.885Z,9.20
2018-07-14T21:54:31.107Z,4.23
2018-07-14T21:59:24.329Z,4.05
2018-07-14T22:04:17.658Z,3.87
2018-07-14T22:09:11.211Z,4.50
2018-07-14T22:14:04.754Z,5.10
2018-07-14T22:18:58.026Z,4.17
2018-07-14T22:23:51.338Z,4.43
2018-07-14T22:28:44.619Z,6.80
2018-07-14T22:33:37.859Z,4.07
2018-07-14T22:38:31.095Z,4.80
2018-07-14T22:43:24.309Z,4.50
2018-07-14T22:48:17.615Z,6.35
2018-07-14T22:53:10.802Z,5.50
2018-07-14T22:58:04.140Z,5.87
2018-07-14T23:02:57.381Z,4.93
2018-07-14T23:07:50.498Z,5.55
2018-07-14T23:12:43.720Z,5.03
2018-07-14T23:17:36.966Z,4.80
2018-07-14T23:22:30.217Z,4.10
2018-07-14T23:27:23.994Z,5.40
2018-07-14T23:32:17.277Z,4.57
2018-07-14T23:37:10.508Z,5.92
2018-07-14T23:42:03.790Z,4.93
2018-07-14T23:46:56.948Z,5.20
2018-07-14T23:51:50.192Z,6.90
2018-07-14T23:56:43.475Z,5.10
